Bentleyville, Ohio
Current Conditions -  °F | °C
As of 10:45 PM on Thursday 27 Nov 2014 (Local Time) from KCGF Reporting Station
Snow Showers Snow Showers  
Wind Chill: 20°   Ceiling: 700
Heat Index: 30°   Visibility: 6mi
Dew Point: 27°   Wind: 14mph
Humidity: 86%   Direction: 340°NNW
Pressure: 30.23"   Gusts: NA
Location:  41.4475°N, 81.4018°W
Report Text: KCGF 280345Z 34012KT 6SM -SHSN BKN007 BOVC015 M01/M03 A3023
Loading
Personal Weather Stations






























Interactive Weather Map New forecast layout! Learn more

10-Day Weather Forecast

Advertisements
Track Severe Weather on mobile